createdAt,value
2022-09-03T00:01:50.887Z,13.30
2022-09-03T00:04:55.464Z,13.24
2022-09-03T00:08:39.029Z,13.18
2022-09-03T00:11:54.284Z,13.12
2022-09-03T00:15:03.328Z,13.09
2022-09-03T00:18:09.929Z,13.05
2022-09-03T00:21:22.577Z,13.00
2022-09-03T00:24:29.989Z,12.96
2022-09-03T00:27:36.500Z,12.93
2022-09-03T00:30:40.881Z,12.91
2022-09-03T00:33:46.764Z,12.88
2022-09-03T00:36:48.634Z,12.85
2022-09-03T00:39:50.272Z,12.83
2022-09-03T00:43:06.289Z,12.81
2022-09-03T00:46:32.617Z,12.78
2022-09-03T00:49:41.450Z,12.75
2022-09-03T00:53:12.594Z,12.73
2022-09-03T00:56:22.888Z,12.70
2022-09-03T01:00:06.069Z,12.66
2022-09-03T01:03:23.063Z,12.64
2022-09-03T01:06:46.433Z,12.61
2022-09-03T01:10:21.408Z,12.57
2022-09-03T01:13:37.240Z,12.55
2022-09-03T01:16:53.261Z,12.52
2022-09-03T01:20:19.146Z,12.47
2022-09-03T01:23:35.919Z,12.45
2022-09-03T01:26:49.732Z,12.42
2022-09-03T01:30:17.889Z,12.38
2022-09-03T01:33:34.857Z,12.34
2022-09-03T01:36:57.653Z,12.32
2022-09-03T01:39:59.332Z,12.30
2022-09-03T01:43:37.918Z,12.28
2022-09-03T01:46:45.790Z,12.23
2022-09-03T01:50:00.452Z,12.21
2022-09-03T01:53:26.781Z,12.18
2022-09-03T01:56:42.179Z,12.15
2022-09-03T01:59:59.004Z,12.11
2022-09-03T02:03:05.873Z,12.06
2022-09-03T02:06:09.214Z,12.03
2022-09-03T02:09:10.763Z,11.98
2022-09-03T02:12:16.940Z,11.95
2022-09-03T02:15:21.629Z,11.91
2022-09-03T02:18:31.399Z,11.87
2022-09-03T02:21:38.505Z,11.82
2022-09-03T02:24:40.235Z,11.76
2022-09-03T02:27:42.199Z,11.72
2022-09-03T02:30:44.034Z,11.69
2022-09-03T02:33:48.265Z,11.66
2022-09-03T02:36:49.899Z,11.60
2022-09-03T02:39:54.572Z,11.55
2022-09-03T02:42:56.312Z,11.51
2022-09-03T02:46:05.180Z,11.47
2022-09-03T02:49:07.275Z,11.42
2022-09-03T02:52:11.917Z,11.38
2022-09-03T02:55:13.571Z,11.35
2022-09-03T02:58:15.380Z,11.32
2022-09-03T03:01:23.710Z,11.30
2022-09-03T03:04:26.491Z,11.26
2022-09-03T03:07:34.425Z,11.23
2022-09-03T03:10:36.106Z,11.20
2022-09-03T03:13:37.636Z,11.17
2022-09-03T03:16:39.315Z,11.15
2022-09-03T03:19:40.866Z,11.12
2022-09-03T03:22:42.539Z,11.08
2022-09-03T03:25:44.712Z,11.06
2022-09-03T03:28:49.001Z,11.05
2022-09-03T03:31:51.138Z,11.02
2022-09-03T03:34:52.721Z,10.99
2022-09-03T03:37:54.595Z,10.96
2022-09-03T03:40:56.231Z,10.92
2022-09-03T03:44:00.416Z,10.89
2022-09-03T03:47:02.696Z,10.85
2022-09-03T03:50:05.070Z,10.82
2022-09-03T03:53:06.692Z,10.80
2022-09-03T03:56:12.213Z,10.77
2022-09-03T03:59:13.756Z,10.76
2022-09-03T04:02:18.384Z,10.75
2022-09-03T04:05:23.227Z,10.72
2022-09-03T04:08:25.976Z,10.71
2022-09-03T04:11:27.726Z,10.69
2022-09-03T04:14:29.388Z,10.67
2022-09-03T04:17:31.240Z,10.66
2022-09-03T04:20:32.898Z,10.64
2022-09-03T04:23:36.911Z,10.64
2022-09-03T04:26:39.111Z,10.64
2022-09-03T04:29:40.701Z,10.63
2022-09-03T04:32:54.605Z,10.62
2022-09-03T04:36:08.084Z,10.63
2022-09-03T04:39:09.681Z,10.63
2022-09-03T04:42:11.327Z,10.63
2022-09-03T04:45:18.562Z,10.64
2022-09-03T04:48:20.188Z,10.64
2022-09-03T04:51:31.874Z,10.65
2022-09-03T04:54:33.529Z,10.66
2022-09-03T04:57:37.897Z,10.68
2022-09-03T05:00:40.060Z,10.68
2022-09-03T05:03:41.860Z,10.69
2022-09-03T05:06:45.363Z,10.71
2022-09-03T05:09:46.924Z,10.74
2022-09-03T05:12:49.937Z,10.78
2022-09-03T05:15:51.617Z,10.85
2022-09-03T05:18:54.932Z,10.92
2022-09-03T05:21:56.477Z,11.06
2022-09-03T05:24:58.000Z,11.18
2022-09-03T05:28:00.002Z,11.29
2022-09-03T05:31:03.399Z,11.39
2022-09-03T05:34:06.227Z,11.45
2022-09-03T05:37:07.815Z,11.52
2022-09-03T05:40:11.464Z,11.58
2022-09-03T05:43:13.608Z,11.63
2022-09-03T05:46:18.690Z,11.67
2022-09-03T05:49:20.295Z,11.69
2022-09-03T05:52:23.498Z,11.70
2022-09-03T05:55:25.198Z,11.76
2022-09-03T05:58:35.193Z,11.83
2022-09-03T06:01:39.068Z,11.89
2022-09-03T06:04:40.675Z,11.97
2022-09-03T06:07:42.436Z,12.05
2022-09-03T06:10:45.053Z,12.10
2022-09-03T06:13:47.691Z,12.11
2022-09-03T06:16:52.546Z,12.12
2022-09-03T06:19:54.217Z,12.16
2022-09-03T06:22:55.844Z,12.20
2022-09-03T06:26:05.463Z,12.22
2022-09-03T06:29:08.229Z,12.26
2022-09-03T06:32:09.784Z,12.29
2022-09-03T06:35:11.568Z,12.34
2022-09-03T06:38:13.813Z,12.41
2022-09-03T06:41:21.491Z,12.47
2022-09-03T06:44:23.150Z,12.56
2022-09-03T06:47:24.812Z,12.65
2022-09-03T06:50:26.521Z,12.73
2022-09-03T06:53:32.081Z,12.80
2022-09-03T06:56:39.865Z,12.89
2022-09-03T06:59:43.830Z,13.00
2022-09-03T07:02:45.479Z,13.09
2022-09-03T07:05:48.152Z,13.15
2022-09-03T07:08:49.787Z,13.25
2022-09-03T07:11:51.369Z,13.34
2022-09-03T07:14:52.928Z,13.41
2022-09-03T07:17:55.768Z,13.48
2022-09-03T07:21:07.553Z,13.61
2022-09-03T07:24:09.869Z,13.74
2022-09-03T07:27:14.954Z,13.87
2022-09-03T07:30:18.715Z,13.93
2022-09-03T07:33:20.917Z,13.95
2022-09-03T07:36:24.410Z,13.95
2022-09-03T07:39:26.087Z,13.97
2022-09-03T07:42:29.028Z,14.01
2022-09-03T07:45:32.583Z,14.10
2022-09-03T07:48:37.506Z,14.27
2022-09-03T07:51:40.083Z,14.41
2022-09-03T07:54:41.896Z,14.55
2022-09-03T07:57:43.532Z,14.68
2022-09-03T08:00:45.152Z,14.79
2022-09-03T08:03:49.483Z,14.90
2022-09-03T08:06:55.471Z,15.01
2022-09-03T08:09:57.430Z,15.11
2022-09-03T08:12:59.096Z,15.19
2022-09-03T08:16:01.442Z,15.29
2022-09-03T08:19:04.306Z,15.41
2022-09-03T08:22:05.911Z,15.50
2022-09-03T08:25:07.858Z,15.59
2022-09-03T08:28:15.224Z,15.60
2022-09-03T08:31:19.837Z,15.57
2022-09-03T08:34:21.496Z,15.55
2022-09-03T08:37:29.064Z,15.57
2022-09-03T08:40:33.769Z,15.59
2022-09-03T08:43:53.515Z,15.65
2022-09-03T08:47:05.518Z,15.75
2022-09-03T08:50:18.207Z,15.82
2022-09-03T08:53:27.104Z,15.88
2022-09-03T08:56:33.494Z,15.95
2022-09-03T08:59:35.272Z,16.05
2022-09-03T09:03:06.189Z,16.18
2022-09-03T09:06:14.928Z,16.33
2022-09-03T09:09:31.488Z,16.46
2022-09-03T09:12:47.624Z,16.57
2022-09-03T09:15:55.162Z,16.69
2022-09-03T09:19:31.643Z,16.84
2022-09-03T09:22:39.384Z,16.96
2022-09-03T09:25:51.301Z,17.03
2022-09-03T09:29:02.587Z,17.12
2022-09-03T09:32:09.346Z,17.23
2022-09-03T09:35:11.445Z,17.32
2022-09-03T09:38:14.133Z,17.40
2022-09-03T09:41:20.256Z,17.50
2022-09-03T09:44:22.677Z,17.60
2022-09-03T09:47:31.728Z,17.76
2022-09-03T09:50:33.477Z,17.94
2022-09-03T09:53:35.317Z,18.12
2022-09-03T09:56:37.040Z,18.27
2022-09-03T09:59:38.837Z,18.45
2022-09-03T10:02:51.756Z,18.58
2022-09-03T10:06:23.918Z,18.71
2022-09-03T10:09:31.833Z,18.85
2022-09-03T10:12:36.538Z,18.93
2022-09-03T10:15:40.980Z,19.01
2022-09-03T10:18:49.265Z,19.15
2022-09-03T10:22:09.176Z,19.24
2022-09-03T10:25:11.073Z,19.34
2022-09-03T10:28:13.872Z,19.42
2022-09-03T10:31:35.084Z,19.55
2022-09-03T10:35:14.161Z,19.70
2022-09-03T10:38:34.108Z,19.85
2022-09-03T10:41:59.579Z,19.96
2022-09-03T10:45:12.366Z,20.09
2022-09-03T10:48:32.711Z,20.18
2022-09-03T10:51:36.781Z,20.34
2022-09-03T10:55:12.108Z,20.50
2022-09-03T10:58:28.823Z,20.58
2022-09-03T11:01:42.626Z,20.63
2022-09-03T11:04:58.008Z,20.75
2022-09-03T11:08:24.469Z,20.73
2022-09-03T11:11:42.227Z,20.75
2022-09-03T11:15:10.261Z,20.69
2022-09-03T11:18:43.305Z,20.54
2022-09-03T11:21:47.783Z,20.59
2022-09-03T11:24:54.984Z,20.73
2022-09-03T11:28:21.664Z,20.85
2022-09-03T11:31:26.403Z,20.86
2022-09-03T11:34:32.183Z,20.88
2022-09-03T11:37:50.090Z,21.00
2022-09-03T11:41:12.993Z,21.14
2022-09-03T11:44:19.321Z,21.08
2022-09-03T11:47:38.558Z,21.04
2022-09-03T11:50:51.844Z,21.04
2022-09-03T11:53:59.146Z,21.00
2022-09-03T11:57:13.226Z,21.01
2022-09-03T12:00:22.781Z,20.99
2022-09-03T12:03:37.498Z,21.01
2022-09-03T12:06:59.569Z,21.05
2022-09-03T12:10:13.793Z,21.06
2022-09-03T12:13:20.987Z,21.10
2022-09-03T12:16:27.951Z,21.03
2022-09-03T12:19:37.443Z,21.03
2022-09-03T12:22:39.787Z,21.07
2022-09-03T12:25:48.392Z,21.20
2022-09-03T12:28:53.745Z,21.21
2022-09-03T12:31:56.534Z,21.12
2022-09-03T12:34:59.145Z,21.14
2022-09-03T12:38:05.868Z,21.19
2022-09-03T12:41:23.473Z,21.27
2022-09-03T12:44:31.661Z,21.29
2022-09-03T12:47:39.634Z,21.38
2022-09-03T12:50:48.560Z,21.43
2022-09-03T12:53:53.404Z,21.50
2022-09-03T12:56:58.632Z,21.61
2022-09-03T13:00:06.439Z,21.66
2022-09-03T13:03:31.732Z,21.78
2022-09-03T13:06:42.361Z,21.88
2022-09-03T13:09:46.617Z,21.98
2022-09-03T13:12:53.167Z,21.94
2022-09-03T13:16:17.061Z,21.90
2022-09-03T13:19:43.492Z,21.97
2022-09-03T13:22:54.101Z,21.98
2022-09-03T13:26:18.508Z,22.00
2022-09-03T13:29:26.891Z,21.98
2022-09-03T13:32:36.092Z,21.92
2022-09-03T13:35:48.811Z,21.90
2022-09-03T13:38:52.375Z,21.91
2022-09-03T13:42:06.957Z,21.92
2022-09-03T13:45:30.262Z,21.89
2022-09-03T13:48:53.434Z,21.92
2022-09-03T13:52:02.700Z,21.93
2022-09-03T13:55:12.820Z,21.96
2022-09-03T13:58:28.659Z,21.96
2022-09-03T14:02:12.232Z,21.88
2022-09-03T14:05:34.550Z,21.82
2022-09-03T14:09:16.645Z,21.80
2022-09-03T14:12:36.201Z,21.83
2022-09-03T14:15:48.387Z,21.85
2022-09-03T14:18:58.384Z,21.83
2022-09-03T14:22:05.932Z,21.83
2022-09-03T14:25:16.158Z,21.80
2022-09-03T14:28:41.696Z,21.76
2022-09-03T14:32:08.254Z,21.69
2022-09-03T14:35:24.278Z,21.68
2022-09-03T14:38:47.872Z,21.69
2022-09-03T14:42:18.032Z,21.66
2022-09-03T14:45:41.676Z,21.65
2022-09-03T14:48:49.095Z,21.64
2022-09-03T14:52:42.145Z,21.62
2022-09-03T14:56:05.301Z,21.60
2022-09-03T14:59:25.271Z,21.62
2022-09-03T15:02:46.327Z,21.62
2022-09-03T15:06:28.088Z,21.62
2022-09-03T15:09:40.302Z,21.56
2022-09-03T15:12:51.681Z,21.50
2022-09-03T15:16:06.371Z,21.49
2022-09-03T15:19:07.995Z,21.47
2022-09-03T15:22:37.952Z,21.46
2022-09-03T15:25:58.248Z,21.43
2022-09-03T15:29:11.973Z,21.41
2022-09-03T15:32:29.509Z,21.36
2022-09-03T15:35:56.475Z,21.28
2022-09-03T15:39:06.762Z,21.23
2022-09-03T15:42:14.871Z,21.20
2022-09-03T15:45:32.568Z,21.21
2022-09-03T15:49:03.470Z,21.23
2022-09-03T15:52:33.730Z,21.21
2022-09-03T15:55:39.214Z,21.19
2022-09-03T15:59:01.771Z,21.18
2022-09-03T16:02:12.497Z,21.18
2022-09-03T16:05:20.125Z,21.14
2022-09-03T16:08:34.045Z,21.11
2022-09-03T16:11:50.766Z,21.08
2022-09-03T16:14:59.162Z,21.03
2022-09-03T16:18:09.331Z,20.99
2022-09-03T16:21:38.739Z,20.98
2022-09-03T16:24:53.834Z,20.95
2022-09-03T16:28:10.254Z,20.91
2022-09-03T16:31:33.532Z,20.88
2022-09-03T16:34:53.273Z,20.82
2022-09-03T16:38:03.743Z,20.78
2022-09-03T16:41:24.064Z,20.74
2022-09-03T16:44:51.904Z,20.73
2022-09-03T16:48:15.100Z,20.72
2022-09-03T16:51:39.413Z,20.69
2022-09-03T16:55:04.469Z,20.65
2022-09-03T16:58:43.300Z,20.62
2022-09-03T17:01:55.700Z,20.56
2022-09-03T17:05:20.792Z,20.51
2022-09-03T17:08:54.065Z,20.47
2022-09-03T17:11:58.368Z,20.42
2022-09-03T17:15:18.083Z,20.35
2022-09-03T17:18:47.713Z,20.27
2022-09-03T17:21:49.375Z,20.18
2022-09-03T17:25:01.550Z,20.12
2022-09-03T17:28:24.805Z,20.06
2022-09-03T17:31:41.773Z,19.97
2022-09-03T17:35:15.153Z,19.89
2022-09-03T17:38:52.748Z,19.81
2022-09-03T17:42:15.385Z,19.75
2022-09-03T17:45:48.270Z,19.67
2022-09-03T17:48:57.851Z,19.59
2022-09-03T17:52:20.115Z,19.55
2022-09-03T17:55:37.462Z,19.46
2022-09-03T17:58:49.959Z,19.38
2022-09-03T18:02:20.659Z,19.31
2022-09-03T18:05:30.663Z,19.26
2022-09-03T18:08:56.374Z,19.19
2022-09-03T18:12:22.295Z,19.13
2022-09-03T18:15:26.856Z,19.06
2022-09-03T18:18:34.858Z,18.99
2022-09-03T18:21:57.418Z,18.94
2022-09-03T18:25:19.742Z,18.86
2022-09-03T18:28:51.535Z,19.01
2022-09-03T18:32:12.161Z,18.88
2022-09-03T18:35:32.435Z,18.81
2022-09-03T18:38:56.809Z,18.73
2022-09-03T18:42:51.909Z,18.65
2022-09-03T18:47:54.364Z,18.61
2022-09-03T18:50:30.265Z,18.53
2022-09-03T18:54:16.977Z,18.46
2022-09-03T18:57:46.251Z,18.34
2022-09-03T19:01:43.903Z,18.27
2022-09-03T19:05:25.162Z,18.14
2022-09-03T19:09:03.277Z,18.04
2022-09-03T19:12:59.469Z,17.98
2022-09-03T19:16:38.563Z,17.89
2022-09-03T19:20:34.348Z,17.80
2022-09-03T19:23:55.782Z,17.69
2022-09-03T19:27:59.896Z,17.61
2022-09-03T19:31:31.744Z,17.53
2022-09-03T19:35:01.418Z,17.45
2022-09-03T19:38:34.696Z,17.38
2022-09-03T19:42:14.050Z,17.32
2022-09-03T19:45:52.049Z,17.25
2022-09-03T19:49:21.568Z,17.19
2022-09-03T19:52:48.046Z,17.12
2022-09-03T19:56:17.301Z,17.07
2022-09-03T19:59:42.436Z,16.99
2022-09-03T20:03:06.298Z,16.92
2022-09-03T20:06:28.240Z,16.85
2022-09-03T20:09:55.725Z,16.80
2022-09-03T20:13:15.593Z,16.73
2022-09-03T20:16:24.632Z,16.70
2022-09-03T20:19:35.867Z,16.65
2022-09-03T20:22:43.230Z,16.60
2022-09-03T20:26:10.692Z,16.54
2022-09-03T20:29:22.732Z,16.50
2022-09-03T20:32:56.845Z,16.45
2022-09-03T20:36:15.583Z,16.39
2022-09-03T20:40:11.298Z,16.33
2022-09-03T20:43:37.747Z,16.27
2022-09-03T20:47:06.427Z,16.21
2022-09-03T20:50:18.672Z,16.16
2022-09-03T20:53:30.790Z,16.12
2022-09-03T20:56:36.282Z,16.07
2022-09-03T20:59:44.548Z,16.05
2022-09-03T21:03:21.757Z,16.01
2022-09-03T21:06:50.561Z,15.98
2022-09-03T21:10:13.562Z,15.93
2022-09-03T21:13:41.792Z,15.89
2022-09-03T21:16:55.889Z,15.85
2022-09-03T21:20:31.533Z,15.81
2022-09-03T21:23:43.130Z,15.76
2022-09-03T21:26:50.580Z,15.73
2022-09-03T21:30:07.338Z,15.70
2022-09-03T21:33:19.513Z,15.66
2022-09-03T21:36:33.896Z,15.62
2022-09-03T21:39:51.544Z,15.61
2022-09-03T21:43:03.529Z,15.65
2022-09-03T21:46:09.606Z,15.62
2022-09-03T21:49:16.476Z,15.58
2022-09-03T21:52:21.725Z,15.54
2022-09-03T21:55:34.462Z,15.50
2022-09-03T21:59:08.286Z,15.46
2022-09-03T22:02:27.145Z,15.44
2022-09-03T22:05:37.445Z,15.40
2022-09-03T22:08:50.613Z,15.36
2022-09-03T22:12:06.861Z,15.30
2022-09-03T22:15:13.286Z,15.28
2022-09-03T22:18:32.468Z,15.24
2022-09-03T22:21:45.599Z,15.19
2022-09-03T22:24:58.804Z,15.14
2022-09-03T22:28:12.758Z,15.07
2022-09-03T22:31:20.239Z,15.03
2022-09-03T22:34:40.012Z,14.98
2022-09-03T22:38:19.371Z,14.92
2022-09-03T22:41:39.524Z,14.88
2022-09-03T22:45:05.732Z,14.81
2022-09-03T22:48:14.765Z,14.78
2022-09-03T22:51:21.495Z,14.76
2022-09-03T22:54:47.862Z,14.72
2022-09-03T22:58:11.156Z,14.71
2022-09-03T23:01:23.523Z,14.68
2022-09-03T23:04:34.320Z,14.66
2022-09-03T23:07:46.300Z,14.64
2022-09-03T23:11:13.293Z,14.62
2022-09-03T23:14:41.390Z,14.60
2022-09-03T23:17:47.583Z,14.56
2022-09-03T23:21:22.132Z,14.53
2022-09-03T23:24:59.113Z,14.49
2022-09-03T23:28:02.559Z,14.46
2022-09-03T23:31:25.664Z,14.43
2022-09-03T23:34:27.383Z,14.40
2022-09-03T23:37:56.604Z,14.36
2022-09-03T23:41:04.156Z,14.31
2022-09-03T23:44:20.673Z,14.27
2022-09-03T23:47:45.733Z,14.22
2022-09-03T23:50:50.548Z,14.16
2022-09-03T23:54:19.796Z,14.14
2022-09-03T23:57:24.847Z,14.10
